createdAt,value
2023-01-12T00:04:03.665Z,75.39
2023-01-12T00:09:34.659Z,75.79
2023-01-12T00:15:06.270Z,75.72
2023-01-12T00:20:37.263Z,75.79
2023-01-12T00:26:08.714Z,75.52
2023-01-12T00:31:39.680Z,75.53
2023-01-12T00:37:10.663Z,75.64
2023-01-12T00:42:59.982Z,75.70
2023-01-12T00:48:31.215Z,75.78
2023-01-12T00:54:05.117Z,76.30
2023-01-12T00:59:36.346Z,76.05
2023-01-12T01:05:07.746Z,76.10
2023-01-12T01:10:38.858Z,76.38
2023-01-12T01:16:10.984Z,76.04
2023-01-12T01:21:42.299Z,76.59
2023-01-12T01:27:13.387Z,76.63
2023-01-12T01:32:44.598Z,76.34
2023-01-12T01:38:17.871Z,76.29
2023-01-12T01:43:50.564Z,76.45
2023-01-12T01:49:25.566Z,76.17
2023-01-12T01:54:58.263Z,76.70
2023-01-12T02:00:29.145Z,76.32
2023-01-12T02:06:00.154Z,76.43
2023-01-12T02:11:49.719Z,76.55
2023-01-12T02:17:20.893Z,76.16
2023-01-12T02:22:55.753Z,76.76
2023-01-12T02:28:26.740Z,76.45
2023-01-12T02:33:57.713Z,76.23
2023-01-12T02:39:31.702Z,76.35
2023-01-12T02:45:08.668Z,76.82
2023-01-12T02:50:49.988Z,76.27
2023-01-12T02:56:25.065Z,76.41
2023-01-12T03:01:57.835Z,76.76
2023-01-12T03:07:42.158Z,76.78
2023-01-12T03:13:14.263Z,76.79
2023-01-12T03:18:54.154Z,76.72
2023-01-12T03:24:26.313Z,76.44
2023-01-12T03:29:57.531Z,76.33
2023-01-12T03:35:28.828Z,76.28
2023-01-12T03:41:19.966Z,76.36
2023-01-12T03:46:53.807Z,76.64
2023-01-12T03:52:25.468Z,76.67
2023-01-12T03:57:56.189Z,76.43
2023-01-12T04:03:27.516Z,76.72
2023-01-12T04:08:58.587Z,76.31
2023-01-12T04:14:30.027Z,76.69
2023-01-12T04:20:01.119Z,76.74
2023-01-12T04:25:32.207Z,76.69
2023-01-12T04:31:03.273Z,76.42
2023-01-12T04:36:34.467Z,76.24
2023-01-12T04:42:26.344Z,76.62
2023-01-12T04:48:00.675Z,76.67
2023-01-12T04:53:31.751Z,76.53
2023-01-12T04:59:03.108Z,76.02
2023-01-12T05:04:34.015Z,76.24
2023-01-12T05:10:23.836Z,75.72
2023-01-12T05:15:55.063Z,76.20
2023-01-12T05:21:25.985Z,75.85
2023-01-12T05:26:57.028Z,76.43
2023-01-12T05:32:28.181Z,76.18
2023-01-12T05:37:59.404Z,75.90
2023-01-12T05:43:49.157Z,76.16
2023-01-12T05:49:20.427Z,75.85
2023-01-12T05:54:51.488Z,75.96
2023-01-12T06:00:22.736Z,76.20
2023-01-12T06:05:54.417Z,75.98
2023-01-12T06:11:43.939Z,76.26
2023-01-12T06:17:15.176Z,75.65
2023-01-12T06:22:46.151Z,75.78
2023-01-12T06:28:17.881Z,75.48
2023-01-12T06:33:49.075Z,75.71
2023-01-12T06:39:20.222Z,76.13
2023-01-12T06:44:51.328Z,75.57
2023-01-12T06:50:22.509Z,75.99
2023-01-12T06:55:53.805Z,75.91
2023-01-12T07:01:27.244Z,75.84
2023-01-12T07:06:58.237Z,75.78
2023-01-12T07:12:29.556Z,75.59
2023-01-12T07:18:00.444Z,75.54
2023-01-12T07:23:31.732Z,75.72
2023-01-12T07:29:02.745Z,75.49
2023-01-12T07:34:33.827Z,75.63
2023-01-12T07:40:05.257Z,75.55
2023-01-12T07:45:36.779Z,75.71
2023-01-12T07:51:07.860Z,75.27
2023-01-12T07:56:39.093Z,75.06
2023-01-12T08:02:16.648Z,75.06
2023-01-12T08:07:48.300Z,75.18
2023-01-12T08:13:23.081Z,75.13
2023-01-12T08:19:03.859Z,75.25
2023-01-12T08:24:36.274Z,74.95
2023-01-12T08:30:08.919Z,75.18
2023-01-12T08:35:40.017Z,74.98
2023-01-12T08:41:29.732Z,75.25
2023-01-12T08:47:00.841Z,75.28
2023-01-12T08:52:34.601Z,75.01
2023-01-12T08:58:05.769Z,75.13
2023-01-12T09:03:37.076Z,75.26
2023-01-12T09:09:10.331Z,75.50
2023-01-12T09:14:41.509Z,75.16
2023-01-12T09:20:12.697Z,75.46
2023-01-12T09:25:43.505Z,75.32
2023-01-12T09:31:19.077Z,75.03
2023-01-12T09:36:52.609Z,75.03
2023-01-12T09:42:42.104Z,75.12
2023-01-12T09:48:13.333Z,74.96
2023-01-12T09:53:46.242Z,74.89
2023-01-12T09:59:22.247Z,74.94
2023-01-12T10:04:53.216Z,75.02
2023-01-12T10:10:24.446Z,75.01
2023-01-12T10:16:00.134Z,74.83
2023-01-12T10:21:31.984Z,75.02
2023-01-12T10:27:03.678Z,74.91
2023-01-12T10:32:41.767Z,75.06
2023-01-12T10:38:14.557Z,75.07
2023-01-12T10:43:46.666Z,75.13
2023-01-12T10:49:22.063Z,74.95
2023-01-12T10:54:55.606Z,75.35
2023-01-12T11:00:28.310Z,75.16
2023-01-12T11:06:35.011Z,75.02
2023-01-12T11:12:24.296Z,75.03
2023-01-12T11:18:11.558Z,75.35
2023-01-12T11:23:44.416Z,74.94
2023-01-12T11:29:35.512Z,75.08
2023-01-12T11:35:06.796Z,74.82
2023-01-12T11:40:38.014Z,75.19
2023-01-12T11:46:29.388Z,74.85
2023-01-12T11:52:00.988Z,74.94
2023-01-12T11:57:35.804Z,74.97
2023-01-12T12:03:16.257Z,74.79
2023-01-12T12:08:47.359Z,75.01
2023-01-12T12:14:35.378Z,75.15
2023-01-12T12:20:18.363Z,74.94
2023-01-12T12:25:54.840Z,75.06
2023-01-12T12:31:30.952Z,75.13
2023-01-12T12:37:06.425Z,75.21
2023-01-12T12:43:05.062Z,74.92
2023-01-12T12:48:36.268Z,75.00
2023-01-12T12:54:07.723Z,75.03
2023-01-12T12:59:38.959Z,74.81
2023-01-12T13:05:10.567Z,75.15
2023-01-12T13:10:44.863Z,74.97
2023-01-12T13:16:15.950Z,74.90
2023-01-12T13:21:58.711Z,74.77
2023-01-12T13:27:48.415Z,74.97
2023-01-12T13:33:26.851Z,75.26
2023-01-12T13:39:01.890Z,75.06
2023-01-12T13:44:36.976Z,75.35
2023-01-12T13:50:10.241Z,74.98
2023-01-12T13:55:41.538Z,75.37
2023-01-12T14:01:19.252Z,75.10
2023-01-12T14:07:08.470Z,75.14
2023-01-12T14:12:49.419Z,75.43
2023-01-12T14:18:21.822Z,75.34
2023-01-12T14:23:53.741Z,75.14
2023-01-12T14:29:25.206Z,75.22
2023-01-12T14:34:56.210Z,75.51
2023-01-12T14:40:33.688Z,75.53
2023-01-12T14:46:23.502Z,75.29
2023-01-12T14:52:17.675Z,75.53
2023-01-12T14:57:50.083Z,75.37
2023-01-12T15:03:28.793Z,75.43
2023-01-12T15:09:11.155Z,75.71
2023-01-12T15:14:42.033Z,75.61
2023-01-12T15:20:31.893Z,75.34
2023-01-12T15:26:03.109Z,75.69
2023-01-12T15:31:36.026Z,75.72
2023-01-12T15:37:08.580Z,75.45
2023-01-12T15:42:39.449Z,75.38
2023-01-12T15:48:10.760Z,75.61
2023-01-12T15:53:41.705Z,75.83
2023-01-12T15:59:12.895Z,75.58
2023-01-12T16:04:44.365Z,75.59
2023-01-12T16:10:15.914Z,75.50
2023-01-12T16:15:47.137Z,75.30
2023-01-12T16:21:19.371Z,75.64
2023-01-12T16:26:51.034Z,75.70
2023-01-12T16:32:26.254Z,75.58
2023-01-12T16:37:57.231Z,75.51
2023-01-12T16:43:28.416Z,75.50
2023-01-12T16:48:59.696Z,75.64
2023-01-12T16:54:30.751Z,75.47
2023-01-12T17:00:01.907Z,75.31
2023-01-12T17:05:33.525Z,75.63
2023-01-12T17:11:11.576Z,75.78
2023-01-12T17:16:42.975Z,75.80
2023-01-12T17:22:14.768Z,75.47
2023-01-12T17:27:46.986Z,75.61
2023-01-12T17:33:18.011Z,75.70
2023-01-12T17:38:49.483Z,75.50
2023-01-12T17:44:20.529Z,75.74
2023-01-12T17:49:51.513Z,75.44
2023-01-12T17:55:22.718Z,75.60
2023-01-12T18:00:53.879Z,75.65
2023-01-12T18:06:27.143Z,75.66
2023-01-12T18:12:00.379Z,75.65
2023-01-12T18:17:31.726Z,75.65
2023-01-12T18:23:02.712Z,75.77
2023-01-12T18:28:33.761Z,75.51
2023-01-12T18:34:05.785Z,75.86
2023-01-12T18:39:37.131Z,75.76
2023-01-12T18:45:08.980Z,75.71
2023-01-12T18:50:58.556Z,75.65
2023-01-12T18:56:29.561Z,75.46
2023-01-12T19:02:01.053Z,75.80
2023-01-12T19:07:39.859Z,75.43
2023-01-12T19:13:29.340Z,75.67
2023-01-12T19:19:00.732Z,75.84
2023-01-12T19:24:50.286Z,75.65
2023-01-12T19:30:22.090Z,75.72
2023-01-12T19:35:53.756Z,75.72
2023-01-12T19:41:48.514Z,75.66
2023-01-12T19:47:19.990Z,75.61
2023-01-12T19:52:51.324Z,75.70
2023-01-12T19:58:22.523Z,75.42
2023-01-12T20:03:53.919Z,75.53
2023-01-12T20:09:25.839Z,75.41
2023-01-12T20:14:58.787Z,75.34
2023-01-12T20:20:30.353Z,75.57
2023-01-12T20:26:01.344Z,75.44
2023-01-12T20:31:33.271Z,75.37
2023-01-12T20:37:04.580Z,75.44
2023-01-12T20:42:36.076Z,75.13
2023-01-12T20:48:07.559Z,75.37
2023-01-12T20:53:39.434Z,75.39
2023-01-12T20:59:10.973Z,75.60
2023-01-12T21:04:42.385Z,75.53
2023-01-12T21:10:13.513Z,75.63
2023-01-12T21:15:45.112Z,75.56
2023-01-12T21:21:16.882Z,75.37
2023-01-12T21:26:48.440Z,75.33
2023-01-12T21:32:19.615Z,75.68
2023-01-12T21:37:51.864Z,75.42
2023-01-12T21:43:24.156Z,75.65
2023-01-12T21:48:55.473Z,75.79
2023-01-12T21:54:27.445Z,75.32
2023-01-12T21:59:59.664Z,75.66
2023-01-12T22:05:31.505Z,75.71
2023-01-12T22:11:09.904Z,75.58
2023-01-12T22:16:41.072Z,75.29
2023-01-12T22:22:12.278Z,75.72
2023-01-12T22:27:43.569Z,75.77
2023-01-12T22:33:16.136Z,75.76
2023-01-12T22:38:47.129Z,75.64
2023-01-12T22:44:18.008Z,75.44
2023-01-12T22:49:49.356Z,75.78
2023-01-12T22:55:21.241Z,75.60
2023-01-12T23:00:53.179Z,75.39
2023-01-12T23:06:24.913Z,75.55
2023-01-12T23:11:55.929Z,75.85
2023-01-12T23:17:28.079Z,75.79
2023-01-12T23:22:59.593Z,75.70
2023-01-12T23:28:31.037Z,75.44
2023-01-12T23:34:02.264Z,75.55
2023-01-12T23:39:33.439Z,75.52
2023-01-12T23:45:04.820Z,75.55
2023-01-12T23:50:36.074Z,75.57
2023-01-12T23:56:08.120Z,75.64
